sensor_id;sensor_type;location;lat;lon;timestamp;P1;durP1;ratioP1;P2;durP2;ratioP2
18021;SDS011;9136;48.822;7.966;2023-02-18T00:00:10;16.13;;;15.43;;
18021;SDS011;9136;48.822;7.966;2023-02-18T00:03:00;16.73;;;16.03;;
18021;SDS011;9136;48.822;7.966;2023-02-18T00:05:48;16.93;;;16.23;;
18021;SDS011;9136;48.822;7.966;2023-02-18T00:08:36;19.07;;;18.03;;
18021;SDS011;9136;48.822;7.966;2023-02-18T00:11:24;16.20;;;15.50;;
18021;SDS011;9136;48.822;7.966;2023-02-18T00:14:12;16.80;;;16.10;;
18021;SDS011;9136;48.822;7.966;2023-02-18T00:17:03;16.63;;;15.83;;
18021;SDS011;9136;48.822;7.966;2023-02-18T00:19:51;17.00;;;16.20;;
18021;SDS011;9136;48.822;7.966;2023-02-18T00:22:39;18.47;;;17.67;;
18021;SDS011;9136;48.822;7.966;2023-02-18T00:25:27;17.47;;;16.57;;
18021;SDS011;9136;48.822;7.966;2023-02-18T00:28:15;17.87;;;17.07;;
18021;SDS011;9136;48.822;7.966;2023-02-18T00:31:07;17.60;;;16.80;;
18021;SDS011;9136;48.822;7.966;2023-02-18T00:33:58;19.07;;;18.17;;
18021;SDS011;9136;48.822;7.966;2023-02-18T00:36:46;15.80;;;15.10;;
18021;SDS011;9136;48.822;7.966;2023-02-18T00:39:34;16.00;;;15.20;;
18021;SDS011;9136;48.822;7.966;2023-02-18T00:42:22;15.87;;;14.70;;
18021;SDS011;9136;48.822;7.966;2023-02-18T00:45:10;15.73;;;15.03;;
18021;SDS011;9136;48.822;7.966;2023-02-18T00:47:57;16.63;;;15.83;;
18021;SDS011;9136;48.822;7.966;2023-02-18T00:50:47;16.63;;;15.87;;
18021;SDS011;9136;48.822;7.966;2023-02-18T00:53:35;17.23;;;16.43;;
18021;SDS011;9136;48.822;7.966;2023-02-18T00:56:23;16.80;;;16.07;;
18021;SDS011;9136;48.822;7.966;2023-02-18T00:59:11;17.13;;;16.33;;
18021;SDS011;9136;48.822;7.966;2023-02-18T01:01:59;16.30;;;15.60;;
18021;SDS011;9136;48.822;7.966;2023-02-18T01:04:47;16.20;;;15.50;;
18021;SDS011;9136;48.822;7.966;2023-02-18T01:07:36;15.70;;;15.00;;
18021;SDS011;9136;48.822;7.966;2023-02-18T01:10:24;14.87;;;14.27;;
18021;SDS011;9136;48.822;7.966;2023-02-18T01:13:12;15.47;;;14.77;;
18021;SDS011;9136;48.822;7.966;2023-02-18T01:16:02;16.03;;;15.33;;
18021;SDS011;9136;48.822;7.966;2023-02-18T01:18:50;16.03;;;15.33;;
18021;SDS011;9136;48.822;7.966;2023-02-18T01:21:38;16.50;;;15.70;;
18021;SDS011;9136;48.822;7.966;2023-02-18T01:24:28;16.53;;;15.83;;
18021;SDS011;9136;48.822;7.966;2023-02-18T01:27:16;17.30;;;16.50;;
18021;SDS011;9136;48.822;7.966;2023-02-18T01:30:05;16.37;;;15.67;;
18021;SDS011;9136;48.822;7.966;2023-02-18T01:32:54;16.40;;;15.70;;
18021;SDS011;9136;48.822;7.966;2023-02-18T01:35:42;18.77;;;17.97;;
18021;SDS011;9136;48.822;7.966;2023-02-18T01:38:30;17.07;;;16.30;;
18021;SDS011;9136;48.822;7.966;2023-02-18T01:41:20;15.73;;;14.77;;
18021;SDS011;9136;48.822;7.966;2023-02-18T01:44:12;16.27;;;15.57;;
18021;SDS011;9136;48.822;7.966;2023-02-18T01:47:01;16.77;;;16.07;;
18021;SDS011;9136;48.822;7.966;2023-02-18T01:49:51;18.33;;;17.53;;
18021;SDS011;9136;48.822;7.966;2023-02-18T01:52:40;18.10;;;17.30;;
18021;SDS011;9136;48.822;7.966;2023-02-18T01:55:28;18.50;;;17.70;;
18021;SDS011;9136;48.822;7.966;2023-02-18T01:58:17;19.20;;;18.30;;
18021;SDS011;9136;48.822;7.966;2023-02-18T02:01:06;17.73;;;16.93;;
18021;SDS011;9136;48.822;7.966;2023-02-18T02:03:55;17.63;;;16.83;;
18021;SDS011;9136;48.822;7.966;2023-02-18T02:06:44;16.23;;;15.53;;
18021;SDS011;9136;48.822;7.966;2023-02-18T02:09:32;17.03;;;16.33;;
18021;SDS011;9136;48.822;7.966;2023-02-18T02:12:29;17.00;;;16.20;;
18021;SDS011;9136;48.822;7.966;2023-02-18T02:15:27;17.53;;;16.73;;
18021;SDS011;9136;48.822;7.966;2023-02-18T02:18:29;15.83;;;15.13;;
18021;SDS011;9136;48.822;7.966;2023-02-18T02:21:33;16.60;;;15.90;;
18021;SDS011;9136;48.822;7.966;2023-02-18T02:24:56;18.53;;;17.73;;
18021;SDS011;9136;48.822;7.966;2023-02-18T02:28:00;16.87;;;16.17;;
18021;SDS011;9136;48.822;7.966;2023-02-18T02:34:43;16.77;;;15.97;;
18021;SDS011;9136;48.822;7.966;2023-02-18T02:37:37;16.87;;;16.17;;
18021;SDS011;9136;48.822;7.966;2023-02-18T02:40:32;17.07;;;16.33;;
18021;SDS011;9136;48.822;7.966;2023-02-18T02:43:26;16.47;;;15.77;;
18021;SDS011;9136;48.822;7.966;2023-02-18T02:46:25;17.77;;;16.97;;
18021;SDS011;9136;48.822;7.966;2023-02-18T02:49:19;17.20;;;16.40;;
18021;SDS011;9136;48.822;7.966;2023-02-18T02:52:19;18.50;;;17.60;;
18021;SDS011;9136;48.822;7.966;2023-02-18T02:55:11;17.33;;;16.23;;
18021;SDS011;9136;48.822;7.966;2023-02-18T02:57:59;16.70;;;16.00;;
18021;SDS011;9136;48.822;7.966;2023-02-18T03:00:51;17.63;;;16.80;;
18021;SDS011;9136;48.822;7.966;2023-02-18T03:03:53;18.20;;;17.33;;
18021;SDS011;9136;48.822;7.966;2023-02-18T03:07:05;17.47;;;16.67;;
18021;SDS011;9136;48.822;7.966;2023-02-18T03:10:07;17.70;;;16.90;;
18021;SDS011;9136;48.822;7.966;2023-02-18T03:13:06;19.30;;;18.40;;
18021;SDS011;9136;48.822;7.966;2023-02-18T03:16:00;16.77;;;16.07;;
18021;SDS011;9136;48.822;7.966;2023-02-18T03:19:01;16.67;;;15.97;;
18021;SDS011;9136;48.822;7.966;2023-02-18T03:21:55;17.50;;;16.63;;
18021;SDS011;9136;48.822;7.966;2023-02-18T03:24:47;19.03;;;18.13;;
18021;SDS011;9136;48.822;7.966;2023-02-18T03:27:41;17.27;;;16.47;;
18021;SDS011;9136;48.822;7.966;2023-02-18T03:30:34;17.97;;;17.17;;
18021;SDS011;9136;48.822;7.966;2023-02-18T03:33:27;18.67;;;17.77;;
18021;SDS011;9136;48.822;7.966;2023-02-18T03:36:19;19.27;;;18.47;;
18021;SDS011;9136;48.822;7.966;2023-02-18T03:39:10;18.53;;;17.73;;
18021;SDS011;9136;48.822;7.966;2023-02-18T03:42:01;19.83;;;18.83;;
18021;SDS011;9136;48.822;7.966;2023-02-18T03:44:51;21.13;;;20.13;;
18021;SDS011;9136;48.822;7.966;2023-02-18T03:47:39;19.37;;;18.47;;
18021;SDS011;9136;48.822;7.966;2023-02-18T03:50:26;17.07;;;16.33;;
18021;SDS011;9136;48.822;7.966;2023-02-18T03:53:14;19.73;;;18.83;;
18021;SDS011;9136;48.822;7.966;2023-02-18T03:56:02;17.40;;;16.60;;
18021;SDS011;9136;48.822;7.966;2023-02-18T03:58:51;18.50;;;17.70;;
18021;SDS011;9136;48.822;7.966;2023-02-18T04:01:41;19.03;;;18.20;;
18021;SDS011;9136;48.822;7.966;2023-02-18T04:04:29;20.20;;;19.30;;
18021;SDS011;9136;48.822;7.966;2023-02-18T04:07:17;18.43;;;17.63;;
18021;SDS011;9136;48.822;7.966;2023-02-18T04:10:05;20.00;;;19.10;;
18021;SDS011;9136;48.822;7.966;2023-02-18T04:12:54;17.33;;;16.53;;
18021;SDS011;9136;48.822;7.966;2023-02-18T04:15:42;19.30;;;18.40;;
18021;SDS011;9136;48.822;7.966;2023-02-18T04:18:32;19.10;;;18.30;;
18021;SDS011;9136;48.822;7.966;2023-02-18T04:21:20;19.47;;;18.57;;
18021;SDS011;9136;48.822;7.966;2023-02-18T04:24:08;17.13;;;16.43;;
18021;SDS011;9136;48.822;7.966;2023-02-18T04:26:56;18.47;;;17.67;;
18021;SDS011;9136;48.822;7.966;2023-02-18T04:29:45;18.40;;;17.60;;
18021;SDS011;9136;48.822;7.966;2023-02-18T04:32:32;19.33;;;18.47;;
18021;SDS011;9136;48.822;7.966;2023-02-18T04:35:22;20.60;;;19.70;;
18021;SDS011;9136;48.822;7.966;2023-02-18T04:38:10;19.13;;;18.13;;
18021;SDS011;9136;48.822;7.966;2023-02-18T04:40:58;19.27;;;18.37;;
18021;SDS011;9136;48.822;7.966;2023-02-18T04:43:46;18.80;;;18.00;;
18021;SDS011;9136;48.822;7.966;2023-02-18T04:46:34;19.30;;;18.40;;
18021;SDS011;9136;48.822;7.966;2023-02-18T04:49:22;20.83;;;19.93;;
18021;SDS011;9136;48.822;7.966;2023-02-18T04:52:12;17.60;;;16.80;;
18021;SDS011;9136;48.822;7.966;2023-02-18T04:55:00;18.43;;;17.63;;
18021;SDS011;9136;48.822;7.966;2023-02-18T04:57:49;19.60;;;18.70;;
18021;SDS011;9136;48.822;7.966;2023-02-18T05:00:37;18.93;;;18.03;;
18021;SDS011;9136;48.822;7.966;2023-02-18T05:03:25;16.40;;;15.70;;
18021;SDS011;9136;48.822;7.966;2023-02-18T05:06:13;16.20;;;15.50;;
18021;SDS011;9136;48.822;7.966;2023-02-18T05:09:02;17.13;;;16.23;;
18021;SDS011;9136;48.822;7.966;2023-02-18T05:11:51;16.90;;;16.20;;
18021;SDS011;9136;48.822;7.966;2023-02-18T05:14:39;16.43;;;15.73;;
18021;SDS011;9136;48.822;7.966;2023-02-18T05:17:27;18.80;;;17.90;;
18021;SDS011;9136;48.822;7.966;2023-02-18T05:20:16;18.73;;;17.93;;
18021;SDS011;9136;48.822;7.966;2023-02-18T05:23:03;19.60;;;18.70;;
18021;SDS011;9136;48.822;7.966;2023-02-18T05:25:53;20.47;;;19.57;;
18021;SDS011;9136;48.822;7.966;2023-02-18T05:28:41;17.87;;;17.07;;
18021;SDS011;9136;48.822;7.966;2023-02-18T05:31:29;15.37;;;14.67;;
18021;SDS011;9136;48.822;7.966;2023-02-18T05:34:17;16.30;;;15.60;;
18021;SDS011;9136;48.822;7.966;2023-02-18T05:37:05;16.70;;;16.00;;
18021;SDS011;9136;48.822;7.966;2023-02-18T05:39:52;16.43;;;15.73;;
18021;SDS011;9136;48.822;7.966;2023-02-18T05:42:42;18.30;;;17.40;;
18021;SDS011;9136;48.822;7.966;2023-02-18T05:45:30;16.27;;;15.57;;
18021;SDS011;9136;48.822;7.966;2023-02-18T05:48:18;19.43;;;18.47;;
18021;SDS011;9136;48.822;7.966;2023-02-18T05:51:06;17.07;;;16.37;;
18021;SDS011;9136;48.822;7.966;2023-02-18T05:53:54;15.43;;;14.77;;
18021;SDS011;9136;48.822;7.966;2023-02-18T05:56:42;15.93;;;15.23;;
18021;SDS011;9136;48.822;7.966;2023-02-18T05:59:31;19.33;;;18.47;;
18021;SDS011;9136;48.822;7.966;2023-02-18T06:02:20;18.07;;;17.27;;
18021;SDS011;9136;48.822;7.966;2023-02-18T06:05:08;19.93;;;19.03;;
18021;SDS011;9136;48.822;7.966;2023-02-18T06:07:56;19.10;;;18.30;;
18021;SDS011;9136;48.822;7.966;2023-02-18T06:10:44;18.67;;;17.77;;
18021;SDS011;9136;48.822;7.966;2023-02-18T06:13:32;18.77;;;17.97;;
18021;SDS011;9136;48.822;7.966;2023-02-18T06:16:21;17.00;;;16.30;;
18021;SDS011;9136;48.822;7.966;2023-02-18T06:19:09;17.27;;;16.43;;
18021;SDS011;9136;48.822;7.966;2023-02-18T06:21:57;16.47;;;15.73;;
18021;SDS011;9136;48.822;7.966;2023-02-18T06:24:45;17.90;;;17.07;;
18021;SDS011;9136;48.822;7.966;2023-02-18T06:27:33;17.30;;;16.50;;
18021;SDS011;9136;48.822;7.966;2023-02-18T06:30:21;16.40;;;15.70;;
18021;SDS011;9136;48.822;7.966;2023-02-18T06:33:11;15.73;;;15.03;;
18021;SDS011;9136;48.822;7.966;2023-02-18T06:36:00;16.40;;;15.70;;
18021;SDS011;9136;48.822;7.966;2023-02-18T06:38:51;17.13;;;16.43;;
18021;SDS011;9136;48.822;7.966;2023-02-18T06:41:42;15.73;;;15.03;;
18021;SDS011;9136;48.822;7.966;2023-02-18T06:44:30;17.77;;;16.90;;
18021;SDS011;9136;48.822;7.966;2023-02-18T06:47:18;17.93;;;17.13;;
18021;SDS011;9136;48.822;7.966;2023-02-18T06:50:08;16.50;;;15.80;;
18021;SDS011;9136;48.822;7.966;2023-02-18T06:52:56;17.53;;;16.77;;
18021;SDS011;9136;48.822;7.966;2023-02-18T06:55:44;16.10;;;15.40;;
18021;SDS011;9136;48.822;7.966;2023-02-18T06:58:33;17.60;;;16.67;;
18021;SDS011;9136;48.822;7.966;2023-02-18T07:01:20;18.60;;;17.80;;
18021;SDS011;9136;48.822;7.966;2023-02-18T07:04:09;16.97;;;16.17;;
18021;SDS011;9136;48.822;7.966;2023-02-18T07:06:59;16.60;;;15.83;;
18021;SDS011;9136;48.822;7.966;2023-02-18T07:09:47;16.67;;;15.97;;
18021;SDS011;9136;48.822;7.966;2023-02-18T07:12:35;17.83;;;17.03;;
18021;SDS011;9136;48.822;7.966;2023-02-18T07:15:23;17.17;;;16.47;;
18021;SDS011;9136;48.822;7.966;2023-02-18T07:18:12;18.87;;;17.77;;
18021;SDS011;9136;48.822;7.966;2023-02-18T07:21:00;19.07;;;18.27;;
18021;SDS011;9136;48.822;7.966;2023-02-18T07:23:50;17.30;;;16.50;;
18021;SDS011;9136;48.822;7.966;2023-02-18T07:26:38;16.00;;;15.30;;
18021;SDS011;9136;48.822;7.966;2023-02-18T07:29:26;15.83;;;15.13;;
18021;SDS011;9136;48.822;7.966;2023-02-18T07:32:15;16.30;;;15.60;;
18021;SDS011;9136;48.822;7.966;2023-02-18T07:35:05;16.03;;;15.33;;
18021;SDS011;9136;48.822;7.966;2023-02-18T07:37:53;17.60;;;16.80;;
18021;SDS011;9136;48.822;7.966;2023-02-18T07:40:45;18.30;;;17.47;;
18021;SDS011;9136;48.822;7.966;2023-02-18T07:43:33;14.57;;;13.97;;
18021;SDS011;9136;48.822;7.966;2023-02-18T07:46:21;18.10;;;17.30;;
18021;SDS011;9136;48.822;7.966;2023-02-18T07:49:09;17.40;;;16.60;;
18021;SDS011;9136;48.822;7.966;2023-02-18T07:51:57;15.50;;;14.80;;
18021;SDS011;9136;48.822;7.966;2023-02-18T07:54:45;14.77;;;14.17;;
18021;SDS011;9136;48.822;7.966;2023-02-18T07:57:35;16.43;;;15.73;;
18021;SDS011;9136;48.822;7.966;2023-02-18T08:00:42;18.87;;;17.93;;
18021;SDS011;9136;48.822;7.966;2023-02-18T08:03:30;16.10;;;15.40;;
18021;SDS011;9136;48.822;7.966;2023-02-18T08:06:20;18.33;;;17.40;;
18021;SDS011;9136;48.822;7.966;2023-02-18T08:09:11;17.87;;;17.07;;
18021;SDS011;9136;48.822;7.966;2023-02-18T08:12:00;17.47;;;15.50;;
18021;SDS011;9136;48.822;7.966;2023-02-18T08:14:49;15.00;;;14.40;;
18021;SDS011;9136;48.822;7.966;2023-02-18T08:17:37;15.47;;;14.80;;
18021;SDS011;9136;48.822;7.966;2023-02-18T08:20:25;16.53;;;15.83;;
18021;SDS011;9136;48.822;7.966;2023-02-18T08:23:14;15.83;;;15.13;;
18021;SDS011;9136;48.822;7.966;2023-02-18T08:26:02;16.23;;;15.53;;
18021;SDS011;9136;48.822;7.966;2023-02-18T08:28:50;14.73;;;14.13;;
18021;SDS011;9136;48.822;7.966;2023-02-18T08:31:40;16.83;;;16.13;;
18021;SDS011;9136;48.822;7.966;2023-02-18T08:34:28;14.93;;;14.23;;
18021;SDS011;9136;48.822;7.966;2023-02-18T08:37:16;17.70;;;16.90;;
18021;SDS011;9136;48.822;7.966;2023-02-18T08:40:05;16.87;;;15.67;;
18021;SDS011;9136;48.822;7.966;2023-02-18T08:42:53;17.40;;;16.60;;
18021;SDS011;9136;48.822;7.966;2023-02-18T08:45:41;15.33;;;14.63;;
18021;SDS011;9136;48.822;7.966;2023-02-18T08:48:31;16.07;;;15.37;;
18021;SDS011;9136;48.822;7.966;2023-02-18T08:51:20;14.83;;;14.23;;
18021;SDS011;9136;48.822;7.966;2023-02-18T08:54:09;15.90;;;15.20;;
18021;SDS011;9136;48.822;7.966;2023-02-18T08:56:57;15.30;;;14.60;;
18021;SDS011;9136;48.822;7.966;2023-02-18T08:59:45;16.70;;;16.00;;
18021;SDS011;9136;48.822;7.966;2023-02-18T09:02:33;16.83;;;16.13;;
18021;SDS011;9136;48.822;7.966;2023-02-18T09:05:22;16.10;;;15.40;;
18021;SDS011;9136;48.822;7.966;2023-02-18T09:08:10;14.07;;;13.47;;
18021;SDS011;9136;48.822;7.966;2023-02-18T09:10:59;15.07;;;14.47;;
18021;SDS011;9136;48.822;7.966;2023-02-18T09:13:49;14.80;;;14.20;;
18021;SDS011;9136;48.822;7.966;2023-02-18T09:16:37;15.53;;;14.70;;
18021;SDS011;9136;48.822;7.966;2023-02-18T09:19:25;16.13;;;15.43;;
18021;SDS011;9136;48.822;7.966;2023-02-18T09:22:15;15.00;;;14.33;;
18021;SDS011;9136;48.822;7.966;2023-02-18T09:25:05;15.13;;;14.43;;
18021;SDS011;9136;48.822;7.966;2023-02-18T09:27:53;15.87;;;15.17;;
18021;SDS011;9136;48.822;7.966;2023-02-18T09:30:41;16.27;;;15.57;;
18021;SDS011;9136;48.822;7.966;2023-02-18T09:33:29;14.97;;;14.23;;
18021;SDS011;9136;48.822;7.966;2023-02-18T09:36:17;13.80;;;13.20;;
18021;SDS011;9136;48.822;7.966;2023-02-18T09:39:07;15.87;;;15.10;;
18021;SDS011;9136;48.822;7.966;2023-02-18T09:41:58;14.87;;;14.27;;
18021;SDS011;9136;48.822;7.966;2023-02-18T09:44:50;15.07;;;14.43;;
18021;SDS011;9136;48.822;7.966;2023-02-18T09:47:41;16.37;;;15.60;;
18021;SDS011;9136;48.822;7.966;2023-02-18T09:50:31;15.00;;;14.37;;
18021;SDS011;9136;48.822;7.966;2023-02-18T09:53:21;13.90;;;13.30;;
18021;SDS011;9136;48.822;7.966;2023-02-18T09:56:12;15.57;;;14.87;;
18021;SDS011;9136;48.822;7.966;2023-02-18T09:59:04;14.70;;;14.03;;
18021;SDS011;9136;48.822;7.966;2023-02-18T10:01:58;16.00;;;15.30;;
18021;SDS011;9136;48.822;7.966;2023-02-18T10:04:47;15.53;;;14.83;;
18021;SDS011;9136;48.822;7.966;2023-02-18T10:07:37;14.97;;;14.27;;
18021;SDS011;9136;48.822;7.966;2023-02-18T10:10:30;14.33;;;13.63;;
18021;SDS011;9136;48.822;7.966;2023-02-18T10:13:27;16.63;;;15.83;;
18021;SDS011;9136;48.822;7.966;2023-02-18T10:16:17;13.67;;;13.07;;
18021;SDS011;9136;48.822;7.966;2023-02-18T10:19:14;14.63;;;14.03;;
18021;SDS011;9136;48.822;7.966;2023-02-18T10:22:08;15.23;;;14.50;;
18021;SDS011;9136;48.822;7.966;2023-02-18T10:24:59;14.47;;;13.87;;
18021;SDS011;9136;48.822;7.966;2023-02-18T10:27:50;15.33;;;14.63;;
18021;SDS011;9136;48.822;7.966;2023-02-18T10:30:41;16.37;;;15.50;;
18021;SDS011;9136;48.822;7.966;2023-02-18T10:33:34;14.53;;;13.93;;
18021;SDS011;9136;48.822;7.966;2023-02-18T10:36:24;14.80;;;14.20;;
18021;SDS011;9136;48.822;7.966;2023-02-18T10:39:20;14.50;;;13.90;;
18021;SDS011;9136;48.822;7.966;2023-02-18T10:42:31;14.57;;;13.90;;
18021;SDS011;9136;48.822;7.966;2023-02-18T10:45:32;15.27;;;14.60;;
18021;SDS011;9136;48.822;7.966;2023-02-18T10:51:49;15.47;;;14.77;;
18021;SDS011;9136;48.822;7.966;2023-02-18T10:54:50;14.10;;;13.50;;
18021;SDS011;9136;48.822;7.966;2023-02-18T10:57:46;14.80;;;14.20;;
18021;SDS011;9136;48.822;7.966;2023-02-18T11:00:35;14.13;;;13.53;;
18021;SDS011;9136;48.822;7.966;2023-02-18T11:03:35;13.77;;;13.17;;
18021;SDS011;9136;48.822;7.966;2023-02-18T11:06:29;15.63;;;14.93;;
18021;SDS011;9136;48.822;7.966;2023-02-18T11:09:25;15.93;;;15.23;;
18021;SDS011;9136;48.822;7.966;2023-02-18T11:12:28;13.57;;;12.97;;
18021;SDS011;9136;48.822;7.966;2023-02-18T11:15:22;15.80;;;15.10;;
18021;SDS011;9136;48.822;7.966;2023-02-18T11:18:12;14.70;;;14.10;;
18021;SDS011;9136;48.822;7.966;2023-02-18T11:21:20;14.40;;;13.77;;
18021;SDS011;9136;48.822;7.966;2023-02-18T11:24:16;13.83;;;13.23;;
18021;SDS011;9136;48.822;7.966;2023-02-18T11:27:07;12.47;;;11.87;;
18021;SDS011;9136;48.822;7.966;2023-02-18T11:29:59;16.53;;;15.80;;
18021;SDS011;9136;48.822;7.966;2023-02-18T11:32:51;14.50;;;13.90;;
18021;SDS011;9136;48.822;7.966;2023-02-18T11:35:41;15.97;;;15.27;;
18021;SDS011;9136;48.822;7.966;2023-02-18T11:38:37;13.47;;;12.87;;
18021;SDS011;9136;48.822;7.966;2023-02-18T11:41:34;14.30;;;13.70;;
18021;SDS011;9136;48.822;7.966;2023-02-18T11:44:26;14.50;;;13.90;;
18021;SDS011;9136;48.822;7.966;2023-02-18T11:47:19;13.83;;;13.23;;
18021;SDS011;9136;48.822;7.966;2023-02-18T11:50:19;13.50;;;12.90;;
18021;SDS011;9136;48.822;7.966;2023-02-18T11:56:16;13.60;;;13.00;;
18021;SDS011;9136;48.822;7.966;2023-02-18T11:59:08;14.67;;;13.97;;
18021;SDS011;9136;48.822;7.966;2023-02-18T12:01:59;13.60;;;13.00;;
18021;SDS011;9136;48.822;7.966;2023-02-18T12:04:54;14.97;;;14.27;;
18021;SDS011;9136;48.822;7.966;2023-02-18T12:07:47;15.53;;;14.83;;
18021;SDS011;9136;48.822;7.966;2023-02-18T12:10:39;14.00;;;13.30;;
18021;SDS011;9136;48.822;7.966;2023-02-18T12:13:30;14.17;;;13.47;;
18021;SDS011;9136;48.822;7.966;2023-02-18T12:16:27;14.30;;;13.70;;
18021;SDS011;9136;48.822;7.966;2023-02-18T12:19:26;14.73;;;14.03;;
18021;SDS011;9136;48.822;7.966;2023-02-18T12:22:28;15.20;;;14.50;;
18021;SDS011;9136;48.822;7.966;2023-02-18T12:25:29;13.87;;;13.27;;
18021;SDS011;9136;48.822;7.966;2023-02-18T12:28:26;14.23;;;13.63;;
18021;SDS011;9136;48.822;7.966;2023-02-18T12:31:33;13.63;;;13.03;;
18021;SDS011;9136;48.822;7.966;2023-02-18T12:34:38;13.73;;;13.10;;
18021;SDS011;9136;48.822;7.966;2023-02-18T12:37:41;15.60;;;14.80;;
18021;SDS011;9136;48.822;7.966;2023-02-18T12:40:49;13.23;;;12.63;;
18021;SDS011;9136;48.822;7.966;2023-02-18T12:43:51;15.37;;;14.67;;
18021;SDS011;9136;48.822;7.966;2023-02-18T12:46:56;13.93;;;13.33;;
18021;SDS011;9136;48.822;7.966;2023-02-18T12:50:02;14.40;;;13.80;;
18021;SDS011;9136;48.822;7.966;2023-02-18T12:53:10;13.73;;;13.13;;
18021;SDS011;9136;48.822;7.966;2023-02-18T12:56:31;14.30;;;13.70;;
18021;SDS011;9136;48.822;7.966;2023-02-18T12:59:41;15.23;;;14.53;;
18021;SDS011;9136;48.822;7.966;2023-02-18T13:06:24;15.53;;;14.77;;
18021;SDS011;9136;48.822;7.966;2023-02-18T13:09:45;16.50;;;15.77;;
18021;SDS011;9136;48.822;7.966;2023-02-18T13:12:43;16.80;;;15.53;;
18021;SDS011;9136;48.822;7.966;2023-02-18T13:15:38;14.90;;;14.20;;
18021;SDS011;9136;48.822;7.966;2023-02-18T13:18:31;15.37;;;14.67;;
18021;SDS011;9136;48.822;7.966;2023-02-18T13:21:22;15.27;;;14.37;;
18021;SDS011;9136;48.822;7.966;2023-02-18T13:24:10;14.23;;;13.63;;
18021;SDS011;9136;48.822;7.966;2023-02-18T13:27:04;13.57;;;12.97;;
18021;SDS011;9136;48.822;7.966;2023-02-18T13:30:05;14.43;;;13.83;;
18021;SDS011;9136;48.822;7.966;2023-02-18T13:33:07;15.30;;;14.67;;
18021;SDS011;9136;48.822;7.966;2023-02-18T13:36:04;14.37;;;13.77;;
18021;SDS011;9136;48.822;7.966;2023-02-18T13:39:00;14.00;;;13.40;;
18021;SDS011;9136;48.822;7.966;2023-02-18T13:45:01;14.00;;;13.40;;
18021;SDS011;9136;48.822;7.966;2023-02-18T13:48:20;15.87;;;15.17;;
18021;SDS011;9136;48.822;7.966;2023-02-18T13:51:14;13.27;;;12.67;;
18021;SDS011;9136;48.822;7.966;2023-02-18T13:54:07;14.10;;;13.50;;
18021;SDS011;9136;48.822;7.966;2023-02-18T13:57:05;15.33;;;14.63;;
18021;SDS011;9136;48.822;7.966;2023-02-18T14:00:12;14.70;;;14.00;;
18021;SDS011;9136;48.822;7.966;2023-02-18T14:03:18;12.63;;;12.10;;
18021;SDS011;9136;48.822;7.966;2023-02-18T14:06:19;13.33;;;12.73;;
18021;SDS011;9136;48.822;7.966;2023-02-18T14:12:34;14.43;;;13.83;;
18021;SDS011;9136;48.822;7.966;2023-02-18T14:21:47;13.67;;;13.07;;
18021;SDS011;9136;48.822;7.966;2023-02-18T14:24:46;15.40;;;14.70;;
18021;SDS011;9136;48.822;7.966;2023-02-18T14:27:36;14.60;;;13.90;;
18021;SDS011;9136;48.822;7.966;2023-02-18T14:30:25;14.00;;;13.40;;
18021;SDS011;9136;48.822;7.966;2023-02-18T14:33:20;14.53;;;13.90;;
18021;SDS011;9136;48.822;7.966;2023-02-18T14:36:09;13.50;;;12.90;;
18021;SDS011;9136;48.822;7.966;2023-02-18T14:39:13;13.80;;;13.20;;
18021;SDS011;9136;48.822;7.966;2023-02-18T14:42:23;14.90;;;14.30;;
18021;SDS011;9136;48.822;7.966;2023-02-18T14:45:26;16.07;;;15.37;;
18021;SDS011;9136;48.822;7.966;2023-02-18T14:48:34;16.20;;;15.50;;
18021;SDS011;9136;48.822;7.966;2023-02-18T14:51:31;13.33;;;12.73;;
18021;SDS011;9136;48.822;7.966;2023-02-18T14:54:24;14.27;;;13.67;;
18021;SDS011;9136;48.822;7.966;2023-02-18T14:57:15;14.33;;;13.73;;
18021;SDS011;9136;48.822;7.966;2023-02-18T15:00:12;14.87;;;14.20;;
18021;SDS011;9136;48.822;7.966;2023-02-18T15:03:08;15.20;;;14.50;;
18021;SDS011;9136;48.822;7.966;2023-02-18T15:05:59;13.90;;;13.30;;
18021;SDS011;9136;48.822;7.966;2023-02-18T15:08:47;15.50;;;14.80;;
18021;SDS011;9136;48.822;7.966;2023-02-18T15:11:37;15.93;;;15.23;;
18021;SDS011;9136;48.822;7.966;2023-02-18T15:14:28;14.17;;;13.57;;
18021;SDS011;9136;48.822;7.966;2023-02-18T15:17:20;16.43;;;15.23;;
18021;SDS011;9136;48.822;7.966;2023-02-18T15:20:12;14.50;;;13.90;;
18021;SDS011;9136;48.822;7.966;2023-02-18T15:23:01;14.23;;;13.63;;
18021;SDS011;9136;48.822;7.966;2023-02-18T15:25:50;17.50;;;16.73;;
18021;SDS011;9136;48.822;7.966;2023-02-18T15:28:49;14.77;;;14.17;;
18021;SDS011;9136;48.822;7.966;2023-02-18T15:31:40;15.33;;;14.67;;
18021;SDS011;9136;48.822;7.966;2023-02-18T15:34:35;16.17;;;15.47;;
18021;SDS011;9136;48.822;7.966;2023-02-18T15:37:24;14.00;;;13.40;;
18021;SDS011;9136;48.822;7.966;2023-02-18T15:40:13;16.23;;;15.43;;
18021;SDS011;9136;48.822;7.966;2023-02-18T15:43:01;13.37;;;12.77;;
18021;SDS011;9136;48.822;7.966;2023-02-18T15:45:53;14.20;;;13.60;;
18021;SDS011;9136;48.822;7.966;2023-02-18T15:48:45;13.30;;;12.70;;
18021;SDS011;9136;48.822;7.966;2023-02-18T15:51:33;13.93;;;13.33;;
18021;SDS011;9136;48.822;7.966;2023-02-18T15:54:22;14.87;;;14.17;;
18021;SDS011;9136;48.822;7.966;2023-02-18T15:57:11;13.70;;;13.10;;
18021;SDS011;9136;48.822;7.966;2023-02-18T16:00:03;13.50;;;12.80;;
18021;SDS011;9136;48.822;7.966;2023-02-18T16:03:02;14.50;;;13.90;;
18021;SDS011;9136;48.822;7.966;2023-02-18T16:06:11;15.57;;;14.87;;
18021;SDS011;9136;48.822;7.966;2023-02-18T16:09:07;15.07;;;14.47;;
18021;SDS011;9136;48.822;7.966;2023-02-18T16:12:02;14.10;;;13.50;;
18021;SDS011;9136;48.822;7.966;2023-02-18T16:15:02;13.07;;;12.50;;
18021;SDS011;9136;48.822;7.966;2023-02-18T16:17:51;13.93;;;13.33;;
18021;SDS011;9136;48.822;7.966;2023-02-18T16:20:41;13.77;;;13.17;;
18021;SDS011;9136;48.822;7.966;2023-02-18T16:23:32;14.53;;;13.93;;
18021;SDS011;9136;48.822;7.966;2023-02-18T16:26:22;18.03;;;17.23;;
18021;SDS011;9136;48.822;7.966;2023-02-18T16:29:19;15.77;;;15.07;;
18021;SDS011;9136;48.822;7.966;2023-02-18T16:32:10;15.20;;;14.53;;
18021;SDS011;9136;48.822;7.966;2023-02-18T16:34:57;14.77;;;14.17;;
18021;SDS011;9136;48.822;7.966;2023-02-18T16:37:51;18.47;;;17.67;;
18021;SDS011;9136;48.822;7.966;2023-02-18T16:40:42;14.33;;;13.73;;
18021;SDS011;9136;48.822;7.966;2023-02-18T16:43:30;15.77;;;14.63;;
18021;SDS011;9136;48.822;7.966;2023-02-18T16:46:20;14.93;;;14.33;;
18021;SDS011;9136;48.822;7.966;2023-02-18T16:49:09;14.60;;;14.00;;
18021;SDS011;9136;48.822;7.966;2023-02-18T16:51:59;16.43;;;15.73;;
18021;SDS011;9136;48.822;7.966;2023-02-18T16:54:53;15.43;;;14.73;;
18021;SDS011;9136;48.822;7.966;2023-02-18T16:57:41;15.80;;;15.10;;
18021;SDS011;9136;48.822;7.966;2023-02-18T17:00:29;16.20;;;15.50;;
18021;SDS011;9136;48.822;7.966;2023-02-18T17:03:17;15.23;;;14.53;;
18021;SDS011;9136;48.822;7.966;2023-02-18T17:06:06;16.97;;;16.27;;
18021;SDS011;9136;48.822;7.966;2023-02-18T17:08:54;16.63;;;15.83;;
18021;SDS011;9136;48.822;7.966;2023-02-18T17:11:43;16.80;;;16.00;;
18021;SDS011;9136;48.822;7.966;2023-02-18T17:14:33;15.23;;;14.53;;
18021;SDS011;9136;48.822;7.966;2023-02-18T17:17:21;16.57;;;15.87;;
18021;SDS011;9136;48.822;7.966;2023-02-18T17:20:09;15.60;;;14.90;;
18021;SDS011;9136;48.822;7.966;2023-02-18T17:22:59;15.83;;;15.13;;
18021;SDS011;9136;48.822;7.966;2023-02-18T17:25:48;15.63;;;14.93;;